createdAt,value
2022-10-16T00:02:38.255Z,978.85
2022-10-16T00:08:09.878Z,978.92
2022-10-16T00:13:41.566Z,979.01
2022-10-16T00:19:17.673Z,979.01
2022-10-16T00:24:49.410Z,979.0
2022-10-16T00:30:21.202Z,978.83
2022-10-16T00:35:52.871Z,978.95
2022-10-16T00:41:24.676Z,978.97
2022-10-16T00:46:56.385Z,978.89
2022-10-16T00:52:28.907Z,978.77
2022-10-16T00:57:59.822Z,978.82
2022-10-16T01:03:31.556Z,978.93
2022-10-16T01:09:03.361Z,979.14
2022-10-16T01:14:35.022Z,978.64
2022-10-16T01:20:11.046Z,978.99
2022-10-16T01:25:42.823Z,978.9
2022-10-16T01:31:14.507Z,978.9
2022-10-16T01:36:46.223Z,978.83
2022-10-16T01:42:17.940Z,978.92
2022-10-16T01:47:49.734Z,978.84
2022-10-16T01:53:21.410Z,978.71
2022-10-16T01:58:53.186Z,978.67
2022-10-16T02:04:24.798Z,978.49
2022-10-16T02:09:56.659Z,978.53
2022-10-16T02:15:28.302Z,978.59
2022-10-16T02:21:04.546Z,978.6
2022-10-16T02:26:36.137Z,978.6
2022-10-16T02:32:07.837Z,978.63
2022-10-16T02:37:39.697Z,978.39
2022-10-16T02:43:11.277Z,978.26
2022-10-16T02:48:42.974Z,978.49
2022-10-16T02:54:14.801Z,978.6
2022-10-16T02:59:46.462Z,978.79
2022-10-16T03:05:18.472Z,978.66
2022-10-16T03:10:49.951Z,978.78
2022-10-16T03:16:21.686Z,978.84
2022-10-16T03:21:57.811Z,978.71
2022-10-16T03:27:30.184Z,978.67
2022-10-16T03:33:02.081Z,978.71
2022-10-16T03:38:32.966Z,978.49
2022-10-16T03:44:04.690Z,978.49
2022-10-16T03:49:36.407Z,978.57
2022-10-16T03:55:08.163Z,978.56
2022-10-16T04:00:40.469Z,978.54
2022-10-16T04:06:11.594Z,978.59
2022-10-16T04:11:43.337Z,978.57
2022-10-16T04:17:15.031Z,978.5
2022-10-16T04:22:51.391Z,978.52
2022-10-16T04:28:22.977Z,978.49
2022-10-16T04:33:54.571Z,978.37
2022-10-16T04:39:26.257Z,978.67
2022-10-16T04:44:58.074Z,978.6
2022-10-16T04:50:29.632Z,978.71
2022-10-16T04:56:01.474Z,978.8
2022-10-16T05:01:33.278Z,978.75
2022-10-16T05:07:04.910Z,978.84
2022-10-16T05:12:36.626Z,978.9
2022-10-16T05:18:08.359Z,978.76
2022-10-16T05:23:44.477Z,978.69
2022-10-16T05:29:16.217Z,978.75
2022-10-16T05:34:47.888Z,978.78
2022-10-16T05:40:19.705Z,978.91
2022-10-16T05:45:51.421Z,978.85
2022-10-16T05:51:23.144Z,978.85
2022-10-16T05:56:55.126Z,979.0
2022-10-16T06:02:26.493Z,979.08
2022-10-16T06:07:58.270Z,979.23
2022-10-16T06:13:30.061Z,979.26
2022-10-16T06:19:01.722Z,979.35
2022-10-16T06:25:02.882Z,979.43
2022-10-16T06:30:34.661Z,979.33
2022-10-16T06:36:06.272Z,979.45
2022-10-16T06:41:38.097Z,979.42
2022-10-16T06:47:10.148Z,979.77
2022-10-16T06:52:41.465Z,979.95
2022-10-16T06:58:13.277Z,980.05
2022-10-16T07:03:45.383Z,980.23
2022-10-16T07:09:16.755Z,980.34
2022-10-16T07:14:48.444Z,980.56
2022-10-16T07:20:19.999Z,980.59
2022-10-16T07:25:56.190Z,980.75
2022-10-16T07:31:27.946Z,980.74
2022-10-16T07:36:59.806Z,980.82
2022-10-16T07:42:31.370Z,980.62
2022-10-16T07:48:03.113Z,980.71
2022-10-16T07:53:34.846Z,980.59
2022-10-16T07:59:06.518Z,980.58
2022-10-16T08:04:38.288Z,980.91
2022-10-16T08:10:10.025Z,981.1
2022-10-16T08:15:41.782Z,981.33
2022-10-16T08:21:21.930Z,981.4
2022-10-16T08:26:49.644Z,981.72
2022-10-16T08:32:28.107Z,981.82
2022-10-16T08:37:53.037Z,981.93
2022-10-16T08:43:24.751Z,982.23
2022-10-16T08:48:56.472Z,982.34
2022-10-16T08:54:28.158Z,982.21
2022-10-16T08:59:59.981Z,982.29
2022-10-16T09:05:31.760Z,982.26
2022-10-16T09:11:03.479Z,982.21
2022-10-16T09:16:35.185Z,982.17
2022-10-16T09:22:06.890Z,982.33
2022-10-16T09:27:42.977Z,982.34
2022-10-16T09:33:14.693Z,982.38
2022-10-16T09:38:46.526Z,982.59
2022-10-16T09:44:18.205Z,982.7
2022-10-16T09:49:49.956Z,982.9
2022-10-16T09:55:21.730Z,982.83
2022-10-16T10:00:53.369Z,982.94
2022-10-16T10:06:25.223Z,982.73
2022-10-16T10:11:57.057Z,982.82
2022-10-16T10:17:28.589Z,982.98
2022-10-16T10:23:00.253Z,983.1
2022-10-16T10:28:36.543Z,983.03
2022-10-16T10:34:08.241Z,983.07
2022-10-16T10:39:39.782Z,983.22
2022-10-16T10:45:11.506Z,983.08
2022-10-16T10:50:43.306Z,983.36
2022-10-16T10:56:15.026Z,983.15
2022-10-16T11:01:47.127Z,983.34
2022-10-16T11:07:18.564Z,983.39
2022-10-16T11:12:50.270Z,983.47
2022-10-16T11:18:21.906Z,982.99
2022-10-16T11:23:53.673Z,982.94
2022-10-16T11:29:29.729Z,983.1
2022-10-16T11:35:01.485Z,983.09
2022-10-16T11:40:33.133Z,983.0
2022-10-16T11:46:10.301Z,983.08
2022-10-16T11:51:36.795Z,982.4
2022-10-16T11:57:08.381Z,982.59
2022-10-16T12:02:40.069Z,982.43
2022-10-16T12:08:11.805Z,982.55
2022-10-16T12:13:43.534Z,982.08
2022-10-16T12:19:15.325Z,981.69
2022-10-16T12:24:46.956Z,981.89
2022-10-16T12:30:23.083Z,981.75
2022-10-16T12:35:54.928Z,981.47
2022-10-16T12:41:26.565Z,982.07
2022-10-16T12:46:58.344Z,982.09
2022-10-16T12:52:30.558Z,982.38
2022-10-16T12:58:01.696Z,981.99
2022-10-16T13:03:33.497Z,981.7
2022-10-16T13:09:05.164Z,981.56
2022-10-16T13:14:37.075Z,981.42
2022-10-16T13:20:09.021Z,981.26
2022-10-16T13:25:40.424Z,980.82
2022-10-16T13:31:18.465Z,981.28
2022-10-16T13:36:50.220Z,981.03
2022-10-16T13:42:28.761Z,980.82
2022-10-16T13:47:53.744Z,981.19
2022-10-16T13:53:25.401Z,981.09
2022-10-16T13:58:57.113Z,980.97
2022-10-16T14:04:29.425Z,980.66
2022-10-16T14:10:01.298Z,980.63
2022-10-16T14:15:32.861Z,980.6
2022-10-16T14:21:04.566Z,980.73
2022-10-16T14:26:36.349Z,980.57
2022-10-16T14:32:14.410Z,980.76
2022-10-16T14:37:46.176Z,980.74
2022-10-16T14:43:17.914Z,980.77
2022-10-16T14:48:49.672Z,980.67
2022-10-16T14:54:21.347Z,980.81
2022-10-16T14:59:53.126Z,980.58
2022-10-16T15:05:24.833Z,980.67
2022-10-16T15:10:56.441Z,980.57
2022-10-16T15:16:28.284Z,980.73
2022-10-16T15:21:59.969Z,980.64
2022-10-16T15:27:31.702Z,980.4
2022-10-16T15:33:07.823Z,980.44
2022-10-16T15:38:39.530Z,980.49
2022-10-16T15:44:11.294Z,980.33
2022-10-16T15:49:43.034Z,980.34
2022-10-16T15:55:14.763Z,980.37
2022-10-16T16:00:46.446Z,980.21
2022-10-16T16:06:18.193Z,980.18
2022-10-16T16:11:49.974Z,980.08
2022-10-16T16:17:21.695Z,979.84
2022-10-16T16:22:53.451Z,979.65
2022-10-16T16:28:25.278Z,979.58
2022-10-16T16:34:01.248Z,979.56
2022-10-16T16:39:33.036Z,979.54
2022-10-16T16:45:04.638Z,979.4
2022-10-16T16:50:36.484Z,979.58
2022-10-16T16:56:08.148Z,979.71
2022-10-16T17:01:39.944Z,980.04
2022-10-16T17:07:11.618Z,979.84
2022-10-16T17:12:43.453Z,979.89
2022-10-16T17:18:15.039Z,979.73
2022-10-16T17:23:46.820Z,979.74
2022-10-16T17:29:18.460Z,979.72
2022-10-16T17:34:54.564Z,979.77
2022-10-16T17:40:26.333Z,979.89
2022-10-16T17:45:58.030Z,979.88
2022-10-16T17:51:29.790Z,979.88
2022-10-16T17:57:01.434Z,980.13
2022-10-16T18:02:33.279Z,980.1
2022-10-16T18:08:04.982Z,980.18
2022-10-16T18:13:36.634Z,980.39
2022-10-16T18:19:08.365Z,980.54
2022-10-16T18:24:40.130Z,980.56
2022-10-16T18:30:11.777Z,980.37
2022-10-16T18:35:49.957Z,980.59
2022-10-16T18:41:21.691Z,980.75
2022-10-16T18:46:53.397Z,980.58
2022-10-16T18:52:25.138Z,980.43
2022-10-16T18:57:56.848Z,980.43
2022-10-16T19:03:28.520Z,980.56
2022-10-16T19:09:00.192Z,980.55
2022-10-16T19:14:32.109Z,980.5
2022-10-16T19:20:03.743Z,980.54
2022-10-16T19:25:35.489Z,980.91
2022-10-16T19:31:07.260Z,980.98
2022-10-16T19:36:43.206Z,980.93
2022-10-16T19:42:14.994Z,981.0
2022-10-16T19:47:46.840Z,980.87
2022-10-16T19:53:18.478Z,980.93
2022-10-16T19:58:50.110Z,980.98
2022-10-16T20:04:21.966Z,980.82
2022-10-16T20:09:53.750Z,980.9
2022-10-16T20:15:26.415Z,981.06
2022-10-16T20:20:58.183Z,981.06
2022-10-16T20:26:29.854Z,981.2
2022-10-16T20:32:01.738Z,981.33
2022-10-16T20:37:37.878Z,981.08
2022-10-16T20:43:09.532Z,981.19
2022-10-16T20:48:41.235Z,981.31
2022-10-16T20:54:12.943Z,981.19
2022-10-16T20:59:44.767Z,981.17
2022-10-16T21:05:16.422Z,981.21
2022-10-16T21:10:48.170Z,981.1
2022-10-16T21:16:19.874Z,981.12
2022-10-16T21:21:51.550Z,981.18
2022-10-16T21:27:23.397Z,981.15
2022-10-16T21:32:55.144Z,981.23
2022-10-16T21:38:31.071Z,981.21
2022-10-16T21:44:02.867Z,981.29
2022-10-16T21:49:34.553Z,981.21
2022-10-16T21:55:06.339Z,981.38
2022-10-16T22:00:38.049Z,981.41
2022-10-16T22:06:09.982Z,981.69
2022-10-16T22:11:41.581Z,981.53
2022-10-16T22:17:13.210Z,981.85
2022-10-16T22:22:45.005Z,981.92
2022-10-16T22:28:16.710Z,981.93
2022-10-16T22:33:48.456Z,981.85
2022-10-16T22:39:24.446Z,981.5
2022-10-16T22:44:56.193Z,981.4
2022-10-16T22:50:27.917Z,981.35
2022-10-16T22:55:59.667Z,981.25
2022-10-16T23:01:31.346Z,981.27
2022-10-16T23:07:03.117Z,981.28
2022-10-16T23:12:34.810Z,981.16
2022-10-16T23:18:06.510Z,981.41
2022-10-16T23:23:38.732Z,981.49
2022-10-16T23:29:10.203Z,981.49
2022-10-16T23:34:41.677Z,981.68
2022-10-16T23:40:19.827Z,981.38
2022-10-16T23:45:51.586Z,981.6
2022-10-16T23:51:23.277Z,981.47
2022-10-16T23:56:54.986Z,981.53
